Time;durP1;ratioP1;P1;durP2;ratioP2;P2;SDS_P1;SDS_P2;PMS_P1;PMS_P2;Temp;Humidity;BMP_temperature;BMP_pressure;BME280_temperature;BME280_humidity;BME280_pressure;Samples;Min_cycle;Max_cycle;Signal;HPM_P1;HPM_P2
2024/03/24 00:02:16;;;;;;;7.15;4.28;;;;;;;;;;6155596;28;20760;-82
2024/03/24 00:05:18;;;;;;;6.07;3.25;;;;;;;;;;6142876;28;20089;-82
2024/03/24 00:08:19;;;;;;;7.40;3.85;;;;;;;;;;6142715;28;20882;-81
2024/03/24 00:11:21;;;;;;;7.20;5.30;;;;;;;;;;6161288;28;20054;-82
2024/03/24 00:14:23;;;;;;;5.88;4.47;;;;;;;;;;6158827;28;20562;-82
2024/03/24 00:17:26;;;;;;;11.73;5.57;;;;;;;;;;6163712;28;20922;-81
2024/03/24 00:20:27;;;;;;;8.05;5.15;;;;;;;;;;6143976;28;20137;-82
2024/03/24 00:23:28;;;;;;;10.60;4.82;;;;;;;;;;6161943;28;20739;-81
2024/03/24 00:26:29;;;;;;;9.25;4.90;;;;;;;;;;6162715;28;20050;-83
2024/03/24 00:29:32;;;;;;;6.97;4.50;;;;;;;;;;6119941;28;20047;-82
2024/03/24 00:32:35;;;;;;;8.95;4.95;;;;;;;;;;6162027;28;20050;-82
2024/03/24 00:35:36;;;;;;;14.43;8.57;;;;;;;;;;6149128;28;20038;-82
2024/03/24 00:38:38;;;;;;;19.33;6.93;;;;;;;;;;6144093;28;20042;-82
2024/03/24 00:41:39;;;;;;;10.20;5.13;;;;;;;;;;6132192;28;20711;-82
2024/03/24 00:44:41;;;;;;;9.10;4.32;;;;;;;;;;6146305;28;20054;-81
2024/03/24 00:47:42;;;;;;;9.80;6.13;;;;;;;;;;6133243;28;20165;-81
2024/03/24 00:50:45;;;;;;;16.33;7.45;;;;;;;;;;6129298;28;20058;-82
2024/03/24 00:53:47;;;;;;;10.70;4.60;;;;;;;;;;6131311;28;20643;-82
2024/03/24 00:56:49;;;;;;;8.80;4.53;;;;;;;;;;6163966;28;20616;-82
2024/03/24 00:59:54;;;;;;;;;;;;;;;;;;6149328;28;20078;-82
2024/03/24 01:02:58;;;;;;;9.55;3.75;;;;;;;;;;6115063;28;19926;-83
2024/03/24 01:06:00;;;;;;;8.90;4.72;;;;;;;;;;6144862;28;20557;-82
2024/03/24 01:09:03;;;;;;;7.53;4.53;;;;;;;;;;6163076;28;20819;-81
2024/03/24 01:12:05;;;;;;;10.80;4.65;;;;;;;;;;6151009;28;20444;-82
2024/03/24 01:15:13;;;;;;;8.35;4.32;;;;;;;;;;6162522;28;20055;-82
2024/03/24 01:18:16;;;;;;;7.35;3.95;;;;;;;;;;6155804;28;20551;-82
2024/03/24 01:21:18;;;;;;;5.68;3.95;;;;;;;;;;6149831;28;20051;-81
2024/03/24 01:24:20;;;;;;;8.07;4.38;;;;;;;;;;6144934;28;20050;-81
2024/03/24 01:27:21;;;;;;;7.15;4.18;;;;;;;;;;6162517;28;20047;-81
2024/03/24 01:30:22;;;;;;;8.63;4.28;;;;;;;;;;6146132;28;20057;-79
2024/03/24 01:33:25;;;;;;;6.93;3.63;;;;;;;;;;6160777;28;20047;-81
2024/03/24 01:36:27;;;;;;;4.82;4.22;;;;;;;;;;6128956;28;20039;-81
2024/03/24 01:39:28;;;;;;;7.50;3.13;;;;;;;;;;6161044;28;20047;-81
2024/03/24 01:42:32;;;;;;;6.47;3.78;;;;;;;;;;6162953;28;20837;-81
2024/03/24 01:45:33;;;;;;;7.63;4.15;;;;;;;;;;6155184;28;20047;-80
2024/03/24 01:48:34;;;;;;;8.60;4.10;;;;;;;;;;6146439;28;20111;-80
2024/03/24 01:51:37;;;;;;;8.25;4.93;;;;;;;;;;6129987;28;20049;-80
2024/03/24 01:54:40;;;;;;;8.23;3.60;;;;;;;;;;6162585;28;20528;-82
2024/03/24 01:57:42;;;;;;;8.70;4.57;;;;;;;;;;6163953;28;20055;-81
2024/03/24 02:00:45;;;;;;;6.97;4.03;;;;;;;;;;6145778;28;20055;-81
2024/03/24 02:03:46;;;;;;;8.07;4.00;;;;;;;;;;6156769;28;20516;-81
2024/03/24 02:06:48;;;;;;;6.55;4.25;;;;;;;;;;6161864;28;20606;-81
2024/03/24 02:09:51;;;;;;;9.85;4.43;;;;;;;;;;6162960;28;20539;-81
2024/03/24 02:12:55;;;;;;;9.55;4.05;;;;;;;;;;6169172;28;20057;-80
2024/03/24 02:15:58;;;;;;;8.90;4.63;;;;;;;;;;6165892;28;20043;-82
2024/03/24 02:19:03;;;;;;;4.07;3.50;;;;;;;;;;6175242;28;20134;-81
2024/03/24 02:22:05;;;;;;;6.60;4.25;;;;;;;;;;6150784;28;20516;-82
2024/03/24 02:25:07;;;;;;;9.18;3.58;;;;;;;;;;6166220;28;20046;-81
2024/03/24 02:28:09;;;;;;;6.65;3.55;;;;;;;;;;6168633;28;20070;-82
2024/03/24 02:31:12;;;;;;;6.72;3.83;;;;;;;;;;6169457;28;20074;-81
2024/03/24 02:34:21;;;;;;;8.20;3.50;;;;;;;;;;6167410;28;20097;-82
2024/03/24 02:37:23;;;;;;;6.60;3.78;;;;;;;;;;6154669;28;20101;-82
2024/03/24 02:40:25;;;;;;;7.30;4.13;;;;;;;;;;6163053;28;20149;-81
2024/03/24 02:43:27;;;;;;;6.22;4.10;;;;;;;;;;6155349;28;20371;-81
2024/03/24 02:46:28;;;;;;;7.65;3.70;;;;;;;;;;6164739;28;20047;-81
2024/03/24 02:49:31;;;;;;;7.78;4.80;;;;;;;;;;6132763;28;20053;-82
2024/03/24 02:52:32;;;;;;;7.53;4.53;;;;;;;;;;6145524;28;20114;-82
2024/03/24 02:55:35;;;;;;;7.57;4.68;;;;;;;;;;6153843;28;20066;-81
2024/03/24 02:58:36;;;;;;;7.15;4.13;;;;;;;;;;6161460;28;20050;-82
2024/03/24 03:01:38;;;;;;;7.28;4.78;;;;;;;;;;6125655;28;20138;-82
2024/03/24 03:04:40;;;;;;;7.38;4.60;;;;;;;;;;6152753;28;20062;-83
2024/03/24 03:07:44;;;;;;;8.57;4.88;;;;;;;;;;6147288;28;20093;-82
2024/03/24 03:10:45;;;;;;;8.20;4.45;;;;;;;;;;6141910;28;20099;-82
2024/03/24 03:13:46;;;;;;;7.63;4.28;;;;;;;;;;6149285;28;20580;-81
2024/03/24 03:16:48;;;;;;;6.20;4.10;;;;;;;;;;6150656;28;20715;-81
2024/03/24 03:19:49;;;;;;;5.90;3.78;;;;;;;;;;6154630;28;20105;-80
2024/03/24 03:22:50;;;;;;;9.05;4.22;;;;;;;;;;6146321;28;20117;-80
2024/03/24 03:25:53;;;;;;;9.55;4.40;;;;;;;;;;6160176;28;20082;-81
2024/03/24 03:28:57;;;;;;;7.40;4.53;;;;;;;;;;6146776;28;20133;-82
2024/03/24 03:31:58;;;;;;;24.45;13.75;;;;;;;;;;6143780;28;20082;-81
2024/03/24 03:35:01;;;;;;;24.77;9.38;;;;;;;;;;6146473;28;20055;-81
2024/03/24 03:38:03;;;;;;;39.58;15.93;;;;;;;;;;6158185;28;20054;-81
2024/03/24 03:41:05;;;;;;;9.98;5.20;;;;;;;;;;6180887;28;20058;-82
2024/03/24 03:44:07;;;;;;;11.23;5.15;;;;;;;;;;6160157;28;20050;-81
2024/03/24 03:47:08;;;;;;;12.43;4.85;;;;;;;;;;6162560;28;20055;-82
2024/03/24 03:50:55;;;;;;;8.85;4.95;;;;;;;;;;6161622;28;20129;-81
2024/03/24 03:53:58;;;;;;;8.50;5.93;;;;;;;;;;6176804;28;20051;-82
2024/03/24 03:57:07;;;;;;;10.50;6.07;;;;;;;;;;6205958;28;20050;-82
2024/03/24 04:00:44;;;;;;;9.20;5.03;;;;;;;;;;6169140;28;20046;-82
2024/03/24 04:03:46;;;;;;;8.57;4.78;;;;;;;;;;6153824;28;20054;-82
2024/03/24 04:06:47;;;;;;;8.18;4.95;;;;;;;;;;6172631;28;20059;-82
2024/03/24 04:09:49;;;;;;;7.22;4.63;;;;;;;;;;6169191;28;20054;-82
2024/03/24 04:12:56;;;;;;;7.63;3.88;;;;;;;;;;6174104;28;20118;-82
2024/03/24 04:15:57;;;;;;;9.30;5.18;;;;;;;;;;6172503;28;20836;-82
2024/03/24 04:18:59;;;;;;;8.98;4.20;;;;;;;;;;6161068;28;20050;-82
2024/03/24 04:22:01;;;;;;;7.47;4.72;;;;;;;;;;6183719;28;20134;-82
2024/03/24 04:25:05;;;;;;;10.05;4.80;;;;;;;;;;6143230;28;20045;-81
2024/03/24 04:28:06;;;;;;;7.43;4.60;;;;;;;;;;6170811;28;20053;-82
2024/03/24 04:31:08;;;;;;;10.00;4.97;;;;;;;;;;6172718;28;20453;-80
2024/03/24 04:34:10;;;;;;;8.02;4.03;;;;;;;;;;6121682;28;20047;-82
2024/03/24 04:37:12;;;;;;;11.10;4.97;;;;;;;;;;6166317;28;20055;-82
2024/03/24 04:40:15;;;;;;;7.28;4.13;;;;;;;;;;6168850;28;20640;-82
2024/03/24 04:43:16;;;;;;;7.43;4.05;;;;;;;;;;6137504;28;20862;-82
2024/03/24 04:46:18;;;;;;;8.13;5.50;;;;;;;;;;6152987;28;20050;-81
2024/03/24 04:49:19;;;;;;;9.70;5.65;;;;;;;;;;6161205;28;20093;-82
2024/03/24 04:52:21;;;;;;;8.50;4.93;;;;;;;;;;6131664;28;20125;-82
2024/03/24 04:55:22;;;;;;;8.32;4.75;;;;;;;;;;6152296;28;20054;-82
2024/03/24 04:58:24;;;;;;;5.95;4.47;;;;;;;;;;6150145;28;20250;-82
2024/03/24 05:01:27;;;;;;;7.70;4.88;;;;;;;;;;6150470;28;20627;-82
2024/03/24 05:04:31;;;;;;;9.85;5.65;;;;;;;;;;6139830;28;20053;-81
2024/03/24 05:07:32;;;;;;;11.27;4.85;;;;;;;;;;6167580;28;20544;-81
2024/03/24 05:10:39;;;;;;;10.25;4.88;;;;;;;;;;6148106;28;20054;-82
2024/03/24 05:13:40;;;;;;;8.63;4.78;;;;;;;;;;6150929;28;20043;-82
2024/03/24 05:16:42;;;;;;;25.17;12.25;;;;;;;;;;6116254;28;20106;-81
2024/03/24 05:19:44;;;;;;;35.25;16.90;;;;;;;;;;6146347;28;20640;-82
2024/03/24 05:22:45;;;;;;;28.40;14.75;;;;;;;;;;6130516;28;20039;-82
2024/03/24 05:25:51;;;;;;;19.58;10.50;;;;;;;;;;6161088;28;20539;-83
2024/03/24 05:28:54;;;;;;;16.25;7.97;;;;;;;;;;6129187;28;20046;-82
2024/03/24 05:31:57;;;;;;;12.60;6.07;;;;;;;;;;6177018;28;20047;-82
2024/03/24 05:34:59;;;;;;;11.02;5.65;;;;;;;;;;6149761;28;20062;-83
2024/03/24 05:38:01;;;;;;;7.47;4.95;;;;;;;;;;6143335;28;20079;-82
2024/03/24 05:41:04;;;;;;;9.60;5.22;;;;;;;;;;6148107;28;20053;-82
2024/03/24 05:44:05;;;;;;;8.60;5.53;;;;;;;;;;6132964;28;20113;-82
2024/03/24 05:47:08;;;;;;;8.63;5.80;;;;;;;;;;6160695;28;20043;-82
2024/03/24 05:50:10;;;;;;;8.43;5.50;;;;;;;;;;6160267;28;20050;-81
2024/03/24 05:53:11;;;;;;;12.05;5.47;;;;;;;;;;6145273;28;20437;-81
2024/03/24 05:56:13;;;;;;;6.93;4.60;;;;;;;;;;6145931;28;20055;-81
2024/03/24 05:59:15;;;;;;;8.45;5.10;;;;;;;;;;6129686;28;20046;-82
2024/03/24 06:02:18;;;;;;;9.52;5.35;;;;;;;;;;6176536;28;20046;-81
2024/03/24 06:05:19;;;;;;;9.40;4.95;;;;;;;;;;6152370;28;20053;-79
2024/03/24 06:08:23;;;;;;;9.95;5.10;;;;;;;;;;6162393;28;20046;-83
2024/03/24 06:11:24;;;;;;;13.57;6.75;;;;;;;;;;6116667;28;20078;-82
2024/03/24 06:14:25;;;;;;;18.95;8.93;;;;;;;;;;6131004;28;20672;-82
2024/03/24 06:17:26;;;;;;;9.95;6.47;;;;;;;;;;6154031;28;20046;-82
2024/03/24 06:20:27;;;;;;;9.02;6.88;;;;;;;;;;6143168;28;20126;-84
2024/03/24 06:23:29;;;;;;;10.35;5.95;;;;;;;;;;6125927;28;20094;-81
2024/03/24 06:26:30;;;;;;;17.23;10.55;;;;;;;;;;6127367;28;20445;-81
2024/03/24 06:29:33;;;;;;;8.73;4.85;;;;;;;;;;6107868;28;20057;-81
2024/03/24 06:32:35;;;;;;;9.45;6.70;;;;;;;;;;6126695;28;20686;-81
2024/03/24 06:35:36;;;;;;;6.88;4.75;;;;;;;;;;6145965;28;20050;-81
2024/03/24 06:38:42;;;;;;;9.32;4.93;;;;;;;;;;6150619;28;20039;-81
2024/03/24 06:41:44;;;;;;;8.40;5.43;;;;;;;;;;6164157;28;20054;-81
2024/03/24 06:44:50;;;;;;;10.63;6.43;;;;;;;;;;6147442;28;20300;-81
2024/03/24 06:47:53;;;;;;;7.22;4.80;;;;;;;;;;6144777;28;20074;-81
2024/03/24 06:50:54;;;;;;;9.82;6.57;;;;;;;;;;6158271;28;20437;-81
2024/03/24 06:53:56;;;;;;;10.25;4.97;;;;;;;;;;6142741;28;20077;-81
2024/03/24 06:56:57;;;;;;;10.65;6.15;;;;;;;;;;6141613;28;20509;-80
2024/03/24 06:59:58;;;;;;;9.27;5.20;;;;;;;;;;6156398;28;20729;-80
2024/03/24 07:03:03;;;;;;;10.07;5.30;;;;;;;;;;6144203;28;20055;-81
2024/03/24 07:06:05;;;;;;;9.90;4.95;;;;;;;;;;6167140;28;20049;-83
2024/03/24 07:09:08;;;;;;;10.23;5.68;;;;;;;;;;6154145;28;20054;-82
2024/03/24 07:12:09;;;;;;;7.88;4.65;;;;;;;;;;6141894;28;20038;-83
2024/03/24 07:15:10;;;;;;;9.35;5.25;;;;;;;;;;6142489;28;20049;-82
2024/03/24 07:18:12;;;;;;;9.20;5.18;;;;;;;;;;6144506;28;20065;-81
2024/03/24 07:21:14;;;;;;;8.55;6.85;;;;;;;;;;6162283;28;20212;-84
2024/03/24 07:24:16;;;;;;;10.10;6.28;;;;;;;;;;6146851;28;20749;-82
2024/03/24 07:27:18;;;;;;;10.45;4.75;;;;;;;;;;6141230;28;20078;-82
2024/03/24 07:30:19;;;;;;;8.90;4.97;;;;;;;;;;6148568;28;20083;-83
2024/03/24 07:33:21;;;;;;;11.68;4.97;;;;;;;;;;6125838;28;20050;-82
2024/03/24 07:36:24;;;;;;;9.27;4.55;;;;;;;;;;6140315;28;20057;-82
2024/03/24 07:39:26;;;;;;;9.23;5.65;;;;;;;;;;6155436;28;20425;-82
2024/03/24 07:42:34;;;;;;;8.93;4.72;;;;;;;;;;6155345;28;20043;-82
2024/03/24 07:45:35;;;;;;;7.78;4.28;;;;;;;;;;6143586;28;20054;-82
2024/03/24 07:48:37;;;;;;;7.10;4.53;;;;;;;;;;6165172;28;20503;-82
2024/03/24 07:51:38;;;;;;;7.53;4.35;;;;;;;;;;6126061;28;20105;-82
2024/03/24 07:54:41;;;;;;;9.60;4.03;;;;;;;;;;6121840;28;20786;-82
2024/03/24 07:57:42;;;;;;;8.63;5.13;;;;;;;;;;6141334;28;20055;-82
2024/03/24 08:00:46;;;;;;;9.48;5.18;;;;;;;;;;6126203;28;20054;-83
2024/03/24 08:03:47;;;;;;;8.82;5.90;;;;;;;;;;6130947;28;20050;-82
2024/03/24 08:06:49;;;;;;;6.03;3.83;;;;;;;;;;6141863;28;20058;-82
2024/03/24 08:09:50;;;;;;;8.40;3.95;;;;;;;;;;6140282;28;20105;-82
2024/03/24 08:12:52;;;;;;;7.13;4.13;;;;;;;;;;6110984;28;20460;-82
2024/03/24 08:15:53;;;;;;;8.07;4.78;;;;;;;;;;6164962;28;20080;-82
2024/03/24 08:18:54;;;;;;;8.27;4.03;;;;;;;;;;6142220;28;20101;-82
2024/03/24 08:21:57;;;;;;;9.55;4.53;;;;;;;;;;6136948;28;20055;-81
2024/03/24 08:24:58;;;;;;;7.90;5.15;;;;;;;;;;6124677;28;20129;-82
2024/03/24 08:27:59;;;;;;;6.97;4.30;;;;;;;;;;6145053;28;20451;-82
2024/03/24 08:31:01;;;;;;;7.75;3.90;;;;;;;;;;6176560;28;20065;-82
2024/03/24 08:34:02;;;;;;;10.77;4.38;;;;;;;;;;6162647;28;20540;-82
2024/03/24 08:37:03;;;;;;;10.38;4.15;;;;;;;;;;6132310;28;20054;-82
2024/03/24 08:40:06;;;;;;;7.57;3.90;;;;;;;;;;6157877;28;20046;-81
2024/03/24 08:43:09;;;;;;;9.35;5.70;;;;;;;;;;6145335;28;20043;-81
2024/03/24 08:46:09;;;;;;;6.78;5.28;;;;;;;;;;6162367;28;20456;-82
2024/03/24 08:49:11;;;;;;;6.30;3.63;;;;;;;;;;6149023;28;20053;-82
2024/03/24 08:52:12;;;;;;;7.28;4.57;;;;;;;;;;6160847;28;20082;-82
2024/03/24 08:55:14;;;;;;;9.52;4.85;;;;;;;;;;6161636;28;20600;-83
2024/03/24 08:58:15;;;;;;;7.80;4.88;;;;;;;;;;6160525;28;20055;-82
2024/03/24 09:01:16;;;;;;;9.45;5.50;;;;;;;;;;6130940;28;20460;-81
2024/03/24 09:04:17;;;;;;;6.38;4.65;;;;;;;;;;6161964;28;20596;-83
2024/03/24 09:07:18;;;;;;;7.43;4.13;;;;;;;;;;6112879;28;20050;-82
2024/03/24 09:10:20;;;;;;;6.95;4.38;;;;;;;;;;6159942;28;20102;-82
2024/03/24 09:13:21;;;;;;;6.63;2.97;;;;;;;;;;6162369;28;20047;-82
2024/03/24 09:16:23;;;;;;;5.75;3.75;;;;;;;;;;6142871;28;20050;-82
2024/03/24 09:19:25;;;;;;;6.07;4.53;;;;;;;;;;6129676;28;20057;-82
2024/03/24 09:22:27;;;;;;;10.93;4.97;;;;;;;;;;6143360;28;20047;-83
2024/03/24 09:25:31;;;;;;;9.68;3.72;;;;;;;;;;6109899;28;20050;-83
2024/03/24 09:28:33;;;;;;;9.05;3.45;;;;;;;;;;6147249;28;20071;-83
2024/03/24 09:31:35;;;;;;;5.40;3.22;;;;;;;;;;6146602;28;20066;-82
2024/03/24 09:34:36;;;;;;;8.52;3.75;;;;;;;;;;6130234;28;20047;-83
2024/03/24 09:37:37;;;;;;;4.15;2.72;;;;;;;;;;6134421;28;20046;-83
2024/03/24 09:40:40;;;;;;;7.93;4.32;;;;;;;;;;6161911;28;20045;-83
2024/03/24 09:43:42;;;;;;;11.70;3.38;;;;;;;;;;6144051;28;20074;-83
2024/03/24 09:46:45;;;;;;;6.07;3.50;;;;;;;;;;6159598;28;20406;-83
2024/03/24 09:49:47;;;;;;;9.35;4.15;;;;;;;;;;6160225;28;20053;-84
2024/03/24 09:52:49;;;;;;;9.48;5.10;;;;;;;;;;6127933;28;20086;-82
2024/03/24 09:55:50;;;;;;;9.20;3.80;;;;;;;;;;6147286;28;20051;-82
2024/03/24 09:58:52;;;;;;;5.90;3.60;;;;;;;;;;6172627;28;20061;-83
2024/03/24 10:01:53;;;;;;;7.93;3.78;;;;;;;;;;6143085;28;20073;-85
2024/03/24 10:06:01;;;;;;;11.07;3.90;;;;;;;;;;6157108;28;20046;-85
2024/03/24 10:09:05;;;;;;;6.03;4.28;;;;;;;;;;6173989;28;20047;-85
2024/03/24 10:12:13;;;;;;;8.52;3.33;;;;;;;;;;6149829;28;20051;-83
2024/03/24 10:15:25;;;;;;;5.60;2.42;;;;;;;;;;6176403;28;20018;-83
2024/03/24 10:18:28;;;;;;;8.52;3.35;;;;;;;;;;6168668;28;20467;-85
2024/03/24 10:21:30;;;;;;;7.45;2.72;;;;;;;;;;6163636;28;20133;-83
2024/03/24 10:24:36;;;;;;;4.93;3.00;;;;;;;;;;6165892;28;20051;-84
2024/03/24 10:27:39;;;;;;;6.15;3.60;;;;;;;;;;6154515;28;20046;-83
2024/03/24 10:30:41;;;;;;;10.50;3.55;;;;;;;;;;6145462;28;20051;-83
2024/03/24 10:33:44;;;;;;;4.43;2.72;;;;;;;;;;6160119;28;20059;-83
2024/03/24 10:36:47;;;;;;;9.82;4.07;;;;;;;;;;6160276;28;20058;-83
2024/03/24 10:39:48;;;;;;;8.88;3.80;;;;;;;;;;6131203;28;20058;-84
2024/03/24 10:42:52;;;;;;;4.80;2.83;;;;;;;;;;6151242;28;20042;-83
2024/03/24 10:45:56;;;;;;;5.10;3.08;;;;;;;;;;6146054;28;20114;-85
2024/03/24 10:48:59;;;;;;;6.82;2.95;;;;;;;;;;6118076;28;20158;-83
2024/03/24 10:52:04;;;;;;;7.25;2.95;;;;;;;;;;6131686;28;20568;-84
2024/03/24 10:55:06;;;;;;;3.42;2.25;;;;;;;;;;6113979;28;20057;-84
2024/03/24 10:58:10;;;;;;;4.57;2.97;;;;;;;;;;6128769;29;20051;-84
2024/03/24 11:01:11;;;;;;;7.60;2.85;;;;;;;;;;6143909;29;20043;-84
2024/03/24 11:04:14;;;;;;;6.07;2.63;;;;;;;;;;6126287;28;20098;-84
2024/03/24 11:07:16;;;;;;;4.78;2.95;;;;;;;;;;6099113;28;20151;-84
2024/03/24 11:10:21;;;;;;;13.05;2.88;;;;;;;;;;6095183;28;20130;-84
2024/03/24 11:13:25;;;;;;;6.15;2.38;;;;;;;;;;6113218;29;20051;-85
2024/03/24 11:16:28;;;;;;;6.93;2.80;;;;;;;;;;6107525;28;20046;-84
2024/03/24 11:19:29;;;;;;;5.63;2.60;;;;;;;;;;6129731;28;20139;-85
2024/03/24 11:22:35;;;;;;;5.90;3.03;;;;;;;;;;6109940;28;20058;-84
2024/03/24 11:25:38;;;;;;;5.05;2.60;;;;;;;;;;6078427;28;20055;-84
2024/03/24 11:28:54;;;;;;;6.38;2.95;;;;;;;;;;6101455;28;20556;-86
2024/03/24 11:31:56;;;;;;;4.53;1.92;;;;;;;;;;6118178;28;20055;-85
2024/03/24 11:35:02;;;;;;;4.50;2.50;;;;;;;;;;6102602;29;20086;-85
2024/03/24 11:38:04;;;;;;;4.25;2.33;;;;;;;;;;6102919;28;20083;-85
2024/03/24 11:41:05;;;;;;;6.93;3.45;;;;;;;;;;6081494;28;20434;-85
2024/03/24 11:44:07;;;;;;;10.55;3.33;;;;;;;;;;6119136;28;20035;-86
2024/03/24 11:47:09;;;;;;;9.23;3.30;;;;;;;;;;6126943;28;20057;-85
2024/03/24 11:50:10;;;;;;;5.07;2.60;;;;;;;;;;6152198;28;20054;-85
2024/03/24 11:53:18;;;;;;;4.55;2.25;;;;;;;;;;6159728;28;20073;-85
2024/03/24 11:56:21;;;;;;;4.60;3.28;;;;;;;;;;6145239;28;20046;-86
2024/03/24 11:59:23;;;;;;;5.28;3.08;;;;;;;;;;6125917;28;20042;-85
2024/03/24 12:02:24;;;;;;;3.63;1.90;;;;;;;;;;6159316;28;20101;-86
2024/03/24 12:05:26;;;;;;;5.47;3.55;;;;;;;;;;6134977;28;20074;-85
2024/03/24 12:08:30;;;;;;;;;;;;;;;;;;6134134;28;20054;-84
2024/03/24 12:11:36;;;;;;;6.20;3.03;;;;;;;;;;6170720;28;19937;-84
2024/03/24 12:14:38;;;;;;;4.03;2.70;;;;;;;;;;6150365;28;20117;-85
2024/03/24 12:17:40;;;;;;;6.50;2.03;;;;;;;;;;6152244;28;20492;-87
2024/03/24 12:20:42;;;;;;;3.75;2.08;;;;;;;;;;6167432;28;20344;-86
2024/03/24 12:23:45;;;;;;;6.88;2.53;;;;;;;;;;6165796;28;20042;-86
2024/03/24 12:26:53;;;;;;;8.13;2.28;;;;;;;;;;6155160;28;20059;-86
2024/03/24 12:29:57;;;;;;;3.25;2.22;;;;;;;;;;6161442;28;20780;-86
2024/03/24 12:33:00;;;;;;;4.82;3.63;;;;;;;;;;6166243;28;20046;-85
2024/03/24 12:36:03;;;;;;;5.82;3.25;;;;;;;;;;6153320;28;20061;-85
2024/03/24 12:39:04;;;;;;;5.75;3.25;;;;;;;;;;6150863;28;20035;-84
2024/03/24 12:42:12;;;;;;;4.88;2.90;;;;;;;;;;6150442;28;20410;-84
2024/03/24 12:45:16;;;;;;;8.25;2.85;;;;;;;;;;6148099;28;20056;-84
2024/03/24 12:48:18;;;;;;;4.75;3.65;;;;;;;;;;6125743;28;20050;-85
2024/03/24 12:51:20;;;;;;;5.35;2.88;;;;;;;;;;6154541;28;20515;-85
2024/03/24 12:54:24;;;;;;;4.50;2.70;;;;;;;;;;6133306;28;20039;-85
2024/03/24 12:57:27;;;;;;;6.93;2.58;;;;;;;;;;6170774;28;20801;-85
2024/03/24 13:00:30;;;;;;;5.15;2.90;;;;;;;;;;6106977;28;20110;-83
2024/03/24 13:03:34;;;;;;;4.28;2.53;;;;;;;;;;6159766;28;20039;-83
2024/03/24 13:06:37;;;;;;;6.82;2.88;;;;;;;;;;6150821;28;20043;-84
2024/03/24 13:09:39;;;;;;;4.85;2.90;;;;;;;;;;6122692;28;20050;-84
2024/03/24 13:12:40;;;;;;;4.97;3.25;;;;;;;;;;6134179;28;20409;-83
2024/03/24 13:15:41;;;;;;;8.43;2.58;;;;;;;;;;6149303;28;20238;-83
2024/03/24 13:18:51;;;;;;;4.25;2.13;;;;;;;;;;6116497;28;20046;-83
2024/03/24 13:21:56;;;;;;;5.47;2.67;;;;;;;;;;6136637;28;20057;-83
2024/03/24 13:25:04;;;;;;;6.32;2.75;;;;;;;;;;6138555;28;20398;-83
2024/03/24 13:29:22;;;;;;;8.35;3.83;;;;;;;;;;6142367;28;20611;-83
2024/03/24 13:32:25;;;;;;;4.95;1.90;;;;;;;;;;6151610;28;20057;-83
2024/03/24 13:35:26;;;;;;;5.85;2.42;;;;;;;;;;6153527;28;20053;-82
2024/03/24 13:38:55;;;;;;;4.82;2.75;;;;;;;;;;6144944;28;20043;-84
2024/03/24 13:42:16;;;;;;;5.53;2.65;;;;;;;;;;6142172;28;20050;-84
2024/03/24 13:45:39;;;;;;;6.20;2.60;;;;;;;;;;6139726;28;20047;-84
2024/03/24 13:48:40;;;;;;;;;;;;;;;;;;6167752;28;20053;-83
2024/03/24 13:51:43;;;;;;;6.57;3.45;;;;;;;;;;6148800;28;19989;-83
2024/03/24 13:54:48;;;;;;;5.85;4.05;;;;;;;;;;6131780;28;20057;-84
2024/03/24 13:57:53;;;;;;;4.93;2.38;;;;;;;;;;6162234;28;20138;-84
2024/03/24 14:00:55;;;;;;;6.65;3.22;;;;;;;;;;6161780;28;20061;-83
2024/03/24 14:03:56;;;;;;;5.35;3.17;;;;;;;;;;6130578;28;20051;-84
2024/03/24 14:06:57;;;;;;;4.93;3.20;;;;;;;;;;6160486;28;20622;-83
2024/03/24 14:10:04;;;;;;;5.88;3.13;;;;;;;;;;6160029;28;20054;-83
2024/03/24 14:13:30;;;;;;;19.55;9.02;;;;;;;;;;6146082;28;20053;-84
2024/03/24 14:16:48;;;;;;;4.13;2.25;;;;;;;;;;6164490;28;20043;-83
2024/03/24 14:19:53;;;;;;;5.50;3.28;;;;;;;;;;6145311;28;20086;-83
2024/03/24 14:23:13;;;;;;;5.68;3.25;;;;;;;;;;6165153;28;20039;-82
2024/03/24 14:26:14;;;;;;;5.78;2.97;;;;;;;;;;6131814;28;20058;-83
2024/03/24 14:29:15;;;;;;;6.15;3.20;;;;;;;;;;6104301;28;20912;-82
2024/03/24 14:32:17;;;;;;;8.55;3.58;;;;;;;;;;6166108;28;20054;-84
2024/03/24 14:35:21;;;;;;;8.35;5.03;;;;;;;;;;6145531;28;20529;-83
2024/03/24 14:38:31;;;;;;;;;;;;;;;;;;6132507;28;20039;-82
2024/03/24 14:41:38;;;;;;;9.48;3.65;;;;;;;;;;6145978;28;19933;-83
2024/03/24 14:45:01;;;;;;;5.57;2.53;;;;;;;;;;6152182;28;20109;-83
2024/03/24 14:48:13;;;;;;;5.80;2.55;;;;;;;;;;6159660;28;20460;-83
2024/03/24 14:51:14;;;;;;;6.82;2.65;;;;;;;;;;6144260;28;20042;-84
2024/03/24 14:54:16;;;;;;;3.95;2.35;;;;;;;;;;6115944;28;20773;-83
2024/03/24 14:57:18;;;;;;;8.20;3.00;;;;;;;;;;6159749;28;20062;-84
2024/03/24 15:00:21;;;;;;;6.80;4.30;;;;;;;;;;6145472;28;20142;-83
2024/03/24 15:03:24;;;;;;;4.93;2.22;;;;;;;;;;6142525;28;20172;-83
2024/03/24 15:06:26;;;;;;;8.27;3.47;;;;;;;;;;6150146;28;21197;-83
2024/03/24 15:09:28;;;;;;;3.65;2.35;;;;;;;;;;6145750;28;20054;-82
2024/03/24 15:12:30;;;;;;;5.35;2.63;;;;;;;;;;6137439;28;20134;-82
2024/03/24 15:15:32;;;;;;;5.32;2.38;;;;;;;;;;6143606;28;20054;-83
2024/03/24 15:18:33;;;;;;;6.10;3.10;;;;;;;;;;6146809;28;20650;-81
2024/03/24 15:21:38;;;;;;;8.98;3.30;;;;;;;;;;6168964;28;20377;-82
2024/03/24 15:36:25;;;;;;;6.88;6.18;;;;;;;;;;6355200;27;20713;-71
2024/03/24 15:39:26;;;;;;;5.80;3.45;;;;;;;;;;6323078;28;20590;-71
2024/03/24 15:42:30;;;;;;;8.77;6.55;;;;;;;;;;6329196;28;20046;-71
2024/03/24 15:45:31;;;;;;;6.43;3.65;;;;;;;;;;6315064;28;20040;-71
2024/03/24 15:48:32;;;;;;;8.18;6.15;;;;;;;;;;6317023;28;20146;-72
2024/03/24 15:51:33;;;;;;;7.95;7.25;;;;;;;;;;6313927;28;20081;-69
2024/03/24 15:54:34;;;;;;;6.10;5.50;;;;;;;;;;6310410;28;20141;-72
2024/03/24 15:57:50;;;;;;;6.82;4.60;;;;;;;;;;6318922;28;20119;-72
2024/03/24 16:00:58;;;;;;;6.60;2.72;;;;;;;;;;6270383;28;20703;-72
2024/03/24 16:03:59;;;;;;;5.25;4.68;;;;;;;;;;6294258;28;20063;-72
2024/03/24 16:07:05;;;;;;;15.27;9.50;;;;;;;;;;6306540;28;20578;-72
2024/03/24 16:10:24;;;;;;;18.17;16.33;;;;;;;;;;6290211;28;20071;-72
2024/03/24 16:13:34;;;;;;;9.88;8.93;;;;;;;;;;6280443;28;20059;-72
2024/03/24 16:16:38;;;;;;;7.68;6.82;;;;;;;;;;6345515;28;20047;-72
2024/03/24 16:19:39;;;;;;;10.82;7.95;;;;;;;;;;6309133;28;20048;-73
2024/03/24 16:22:42;;;;;;;15.60;9.13;;;;;;;;;;6319459;28;20046;-71
2024/03/24 16:25:43;;;;;;;6.63;4.00;;;;;;;;;;6284989;28;20779;-71
2024/03/24 16:28:44;;;;;;;8.10;6.07;;;;;;;;;;6301599;28;20039;-72
2024/03/24 16:31:46;;;;;;;8.50;7.10;;;;;;;;;;6306356;28;20046;-71
2024/03/24 16:34:47;;;;;;;11.02;8.45;;;;;;;;;;6318079;28;20044;-71
2024/03/24 16:37:48;;;;;;;14.90;7.07;;;;;;;;;;6284534;28;20441;-72
2024/03/24 16:40:49;;;;;;;10.50;5.35;;;;;;;;;;6284035;28;20052;-71
2024/03/24 16:43:50;;;;;;;17.52;13.00;;;;;;;;;;6274090;28;20071;-72
2024/03/24 16:46:53;;;;;;;7.78;6.80;;;;;;;;;;6309475;28;20612;-72
2024/03/24 16:49:54;;;;;;;12.45;10.02;;;;;;;;;;6284265;28;20576;-72
2024/03/24 16:52:57;;;;;;;8.85;7.40;;;;;;;;;;6304524;28;20036;-72
2024/03/24 16:55:58;;;;;;;8.30;6.55;;;;;;;;;;6300826;28;20031;-72
2024/03/24 16:58:59;;;;;;;6.70;5.28;;;;;;;;;;6285415;28;20095;-71
2024/03/24 17:02:02;;;;;;;8.07;3.53;;;;;;;;;;6297065;28;20065;-72
2024/03/24 17:05:03;;;;;;;10.63;6.05;;;;;;;;;;6285603;28;20083;-72
2024/03/24 17:08:05;;;;;;;8.05;7.07;;;;;;;;;;6291037;28;20137;-71
2024/03/24 17:11:06;;;;;;;8.75;4.47;;;;;;;;;;6283013;28;20036;-72
2024/03/24 17:14:07;;;;;;;11.18;7.05;;;;;;;;;;6277869;28;20100;-71
2024/03/24 17:17:08;;;;;;;31.95;18.52;;;;;;;;;;6300309;28;20071;-71
2024/03/24 17:20:10;;;;;;;28.25;15.32;;;;;;;;;;6307179;28;20039;-71
2024/03/24 17:23:11;;;;;;;19.80;9.55;;;;;;;;;;6281697;28;20051;-72
2024/03/24 17:26:12;;;;;;;15.32;9.43;;;;;;;;;;6294839;28;20142;-71
2024/03/24 17:29:13;;;;;;;12.73;9.27;;;;;;;;;;6295572;28;20056;-72
2024/03/24 17:32:15;;;;;;;20.15;11.27;;;;;;;;;;6310025;28;20051;-71
2024/03/24 17:35:16;;;;;;;11.93;9.23;;;;;;;;;;6279241;28;20044;-72
2024/03/24 17:38:17;;;;;;;10.45;7.18;;;;;;;;;;6299427;28;20048;-72
2024/03/24 17:41:18;;;;;;;11.77;8.85;;;;;;;;;;6295716;28;20044;-71
2024/03/24 17:44:19;;;;;;;30.67;16.98;;;;;;;;;;6256365;28;20135;-71
2024/03/24 17:47:21;;;;;;;34.85;17.35;;;;;;;;;;6290044;28;20089;-72
2024/03/24 17:50:22;;;;;;;24.30;10.68;;;;;;;;;;6274360;28;20515;-73
2024/03/24 17:53:24;;;;;;;21.95;11.93;;;;;;;;;;6286819;28;20047;-72
2024/03/24 17:56:25;;;;;;;13.98;9.52;;;;;;;;;;6288069;28;20032;-73
2024/03/24 17:59:26;;;;;;;9.93;8.93;;;;;;;;;;6279667;28;20172;-72
2024/03/24 18:02:27;;;;;;;29.75;21.08;;;;;;;;;;6272707;28;20915;-73
2024/03/24 18:05:28;;;;;;;24.20;20.67;;;;;;;;;;6293096;28;20071;-72
2024/03/24 18:11:49;;;;;;;21.02;18.40;;;;;;;;;;6323613;27;20055;-71
2024/03/24 18:14:51;;;;;;;13.48;11.15;;;;;;;;;;6271137;28;20040;-72
2024/03/24 18:17:52;;;;;;;15.68;11.40;;;;;;;;;;6271331;28;20136;-72
2024/03/24 18:20:56;;;;;;;25.65;15.88;;;;;;;;;;6300257;28;20052;-72
2024/03/24 18:23:58;;;;;;;17.48;10.95;;;;;;;;;;6287909;28;20075;-72
2024/03/24 18:26:59;;;;;;;15.45;9.35;;;;;;;;;;6288924;28;20043;-72
2024/03/24 18:30:00;;;;;;;12.25;10.95;;;;;;;;;;6297410;28;20089;-72
2024/03/24 18:33:03;;;;;;;14.32;10.32;;;;;;;;;;6273285;28;20047;-72